»·PEaware :: SKY103 KABQ-KSKX

SKY103 :: KABQ-KSKX

FLIGHT INFORMATION

Flight Status: Arrived
Operator:
Sky High Charters
More flights by this operator :: More flights under this callsign
Pilot: Andrew C. (28419)
Aircraft: SOCATA TBM-900
(TBM9)
More flights by this aircraft type
Origin: KABQ Albuquerque Intl Sunport
United States
Destination: KSKX Taos Regl
United States
More flights between these airports :: More routes between these airports
Route: +ABQ V263 SAF V83 TAS
File this flight plan on PilotEdge
Remarks: Scenario 2; Zulu Weather for Leg 2
Altitude:
(Current/Filed)
11,000ft
Speed:
(Current/Filed)
220kts
Departed: 01-Aug-20 10:07 AM
Arrived: 01-Aug-20 10:38 AM
Distance/Time
Traveled:
97nm/0:31
Distance/Time
To Go:
Arrived

Flight Plot

Page will automatically refresh every two minutes.

Flight plan parsing failed; only flown route is shown


Map Options




Map Legend


Flown Route
Filed Route
Departure Airport
Arrival Airport
Navaid (VOR, NDB)
Fix

Horizontal Profiles

Position Reports

Time Latitude Longitude Heading Altitude Ground
Speed
01-Aug-20 09:48 35.037739 -106.616348 337 5315ft 0kts
01-Aug-20 09:49 35.037739 -106.616348 337 5315ft 0kts
01-Aug-20 09:50 35.037739 -106.616348 337 5315ft 0kts
01-Aug-20 09:51 35.037739 -106.616348 337 5315ft 0kts
01-Aug-20 09:52 35.037739 -106.616348 337 5315ft 0kts
01-Aug-20 09:53 35.037739 -106.616348 337 5315ft 0kts
01-Aug-20 09:54 35.037739 -106.616348 337 5315ft 0kts
01-Aug-20 09:55 35.037739 -106.616348 337 5315ft 0kts
01-Aug-20 09:56 35.037739 -106.616348 337 5315ft 0kts
01-Aug-20 09:57 35.037739 -106.616348 337 5315ft 0kts
01-Aug-20 09:58 35.037739 -106.616348 337 5315ft 0kts
01-Aug-20 09:59 35.037739 -106.616348 337 5315ft 0kts
01-Aug-20 10:00 35.037931 -106.616447 338 5315ft 3kts
01-Aug-20 10:01 35.039608 -106.616554 101 5315ft 10kts
01-Aug-20 10:02 35.037189 -106.612825 128 5315ft 13kts
01-Aug-20 10:03 35.034123 -106.608204 128 5315ft 17kts
01-Aug-20 10:04 35.032795 -106.605804 63 5315ft 0kts
01-Aug-20 10:05 35.033304 -106.605360 331 5315ft 11kts
01-Aug-20 10:06 35.044697 -106.634416 264 6486ft 125kts
01-Aug-20 10:07 35.043226 -106.684267 268 8830ft 145kts
01-Aug-20 10:08 35.042749 -106.742443 269 10963ft 163kts
01-Aug-20 10:09 35.055234 -106.814062 330 11002ft 237kts
01-Aug-20 10:10 35.123694 -106.783947 20 11007ft 259kts
01-Aug-20 10:11 35.199191 -106.750817 18 11001ft 268kts
01-Aug-20 10:12 35.276953 -106.717890 18 11000ft 269kts
01-Aug-20 10:13 35.355156 -106.684710 17 11000ft 269kts
01-Aug-20 10:14 35.432726 -106.651801 17 11032ft 269kts
01-Aug-20 10:15 35.509191 -106.619287 27 11063ft 270kts
01-Aug-20 10:16 35.526606 -106.523058 86 11092ft 278kts
01-Aug-20 10:17 35.529900 -106.419270 86 11092ft 278kts
01-Aug-20 10:18 35.533097 -106.316475 86 11090ft 279kts
01-Aug-20 10:19 35.536241 -106.212369 86 11091ft 278kts
01-Aug-20 10:20 35.539299 -106.108249 86 11090ft 278kts
01-Aug-20 10:21 35.596657 -106.057071 5 11093ft 266kts
01-Aug-20 10:22 35.677121 -106.044901 5 11090ft 266kts
01-Aug-20 10:23 35.757344 -106.033095 5 11091ft 266kts
01-Aug-20 10:24 35.837404 -106.021296 5 11090ft 265kts
01-Aug-20 10:25 35.918393 -106.009330 5 10982ft 266kts
01-Aug-20 10:26 35.998877 -105.997419 4 10991ft 265kts
01-Aug-20 10:27 36.079298 -105.985490 5 10992ft 265kts
01-Aug-20 10:28 36.159127 -105.973624 4 10996ft 266kts
01-Aug-20 10:29 36.239360 -105.961668 5 10980ft 264kts
01-Aug-20 10:30 36.310663 -105.921670 40 10427ft 272kts
01-Aug-20 10:31 36.360500 -105.851960 54 9781ft 207kts
01-Aug-20 10:32 36.385298 -105.806378 55 9430ft 110kts
01-Aug-20 10:33 36.401878 -105.775985 55 8851ft 106kts
01-Aug-20 10:34 36.418618 -105.745213 55 8289ft 111kts
01-Aug-20 10:35 36.436091 -105.713055 55 7686ft 111kts
01-Aug-20 10:36 36.452851 -105.682258 54 7135ft 105kts
01-Aug-20 10:37 36.460459 -105.669312 308 7091ft 5kts
01-Aug-20 10:38 36.460145 -105.671338 140 7091ft 0kts
01-Aug-20 10:39 36.460145 -105.671338 140 7091ft 0kts
01-Aug-20 10:41 36.460145 -105.671338 140 7091ft 0kts
01-Aug-20 10:42 36.460145 -105.671338 140 7091ft 0kts
01-Aug-20 10:43 36.460145 -105.671338 140 7091ft 0kts
01-Aug-20 10:44 36.460145 -105.671338 140 7091ft 0kts
01-Aug-20 10:45 36.460145 -105.671338 140 7091ft 0kts
01-Aug-20 10:46 36.460145 -105.671338 140 7091ft 0kts
01-Aug-20 10:47 36.460145 -105.671338 140 7091ft 0kts
01-Aug-20 10:48 36.460145 -105.671338 140 7091ft 0kts
01-Aug-20 10:49 36.460145 -105.671338 140 7091ft 0kts

Navigation Log

Ident Type
Flight plan parsing failed, navigation log unavailable